createdAt,value
2018-09-06T00:00:50.675Z,13.43
2018-09-06T00:03:19.000Z,12.28
2018-09-06T00:05:47.486Z,11.20
2018-09-06T00:08:15.840Z,13.22
2018-09-06T00:10:44.251Z,15.48
2018-09-06T00:13:12.536Z,13.50
2018-09-06T00:15:40.869Z,11.22
2018-09-06T00:18:09.199Z,14.40
2018-09-06T00:20:37.607Z,12.70
2018-09-06T00:23:06.425Z,10.95
2018-09-06T00:25:35.153Z,13.27
2018-09-06T00:28:03.711Z,11.55
2018-09-06T00:30:32.037Z,12.75
2018-09-06T00:33:00.381Z,11.40
2018-09-06T00:35:28.672Z,14.83
2018-09-06T00:37:57.049Z,12.85
2018-09-06T00:40:25.429Z,13.83
2018-09-06T00:42:53.869Z,12.20
2018-09-06T00:45:22.241Z,15.95
2018-09-06T00:47:50.577Z,14.50
2018-09-06T00:50:20.946Z,14.63
2018-09-06T00:52:51.399Z,14.27
2018-09-06T00:55:20.276Z,13.80
2018-09-06T00:57:48.605Z,11.50
2018-09-06T01:00:16.985Z,11.90
2018-09-06T01:02:45.505Z,10.35
2018-09-06T01:05:14.043Z,11.40
2018-09-06T01:07:42.335Z,12.07
2018-09-06T01:10:10.651Z,11.55
2018-09-06T01:12:38.988Z,13.40
2018-09-06T01:15:07.333Z,15.95
2018-09-06T01:17:35.743Z,13.40
2018-09-06T01:20:04.168Z,15.00
2018-09-06T01:22:32.576Z,14.65
2018-09-06T01:25:00.897Z,12.00
2018-09-06T01:27:29.197Z,15.70
2018-09-06T01:30:04.204Z,21.02
2018-09-06T01:32:32.726Z,14.40
2018-09-06T01:35:01.022Z,15.13
2018-09-06T01:37:29.326Z,11.97
2018-09-06T01:39:57.603Z,16.32
2018-09-06T01:42:25.917Z,15.20
2018-09-06T01:44:54.242Z,16.07
2018-09-06T01:47:22.530Z,17.40
2018-09-06T01:49:50.853Z,17.57
2018-09-06T01:52:19.191Z,14.45
2018-09-06T01:54:47.580Z,14.98
2018-09-06T01:57:15.902Z,21.15
2018-09-06T01:59:44.430Z,21.62
2018-09-06T02:02:12.739Z,13.15
2018-09-06T02:04:41.041Z,18.82
2018-09-06T02:07:09.389Z,17.00
2018-09-06T02:09:37.709Z,18.75
2018-09-06T02:12:06.029Z,14.03
2018-09-06T02:14:34.647Z,17.45
2018-09-06T02:17:02.978Z,14.98
2018-09-06T02:19:31.318Z,15.00
2018-09-06T02:21:59.745Z,15.05
2018-09-06T02:24:28.129Z,17.52
2018-09-06T02:26:56.407Z,16.80
2018-09-06T02:29:24.745Z,14.90
2018-09-06T02:31:53.031Z,14.43
2018-09-06T02:34:21.333Z,16.40
2018-09-06T02:36:49.629Z,18.98
2018-09-06T02:39:17.952Z,14.45
2018-09-06T02:41:46.264Z,16.82
2018-09-06T02:44:14.572Z,14.00
2018-09-06T02:46:42.890Z,16.10
2018-09-06T02:49:11.285Z,15.45
2018-09-06T02:51:39.660Z,17.67
2018-09-06T02:54:07.987Z,14.45
2018-09-06T02:56:36.338Z,18.50
2018-09-06T02:59:04.771Z,20.30
2018-09-06T03:01:33.101Z,16.30
2018-09-06T03:04:01.402Z,18.33
2018-09-06T03:06:29.730Z,18.10
2018-09-06T03:08:58.092Z,15.72
2018-09-06T03:11:31.619Z,19.35
2018-09-06T03:13:59.884Z,20.95
2018-09-06T03:16:28.298Z,16.20
2018-09-06T03:18:56.611Z,19.27
2018-09-06T03:21:24.890Z,17.50
2018-09-06T03:23:53.192Z,16.55
2018-09-06T03:26:21.517Z,16.87
2018-09-06T03:28:50.844Z,16.50
2018-09-06T03:31:19.176Z,19.40
2018-09-06T03:33:47.784Z,20.35
2018-09-06T03:36:16.362Z,18.15
2018-09-06T03:38:45.281Z,15.30
2018-09-06T03:41:13.595Z,18.90
2018-09-06T03:43:41.946Z,16.93
2018-09-06T03:46:10.391Z,21.73
2018-09-06T03:48:38.851Z,17.92
2018-09-06T03:51:07.443Z,18.83
2018-09-06T03:53:36.161Z,20.62
2018-09-06T03:56:04.530Z,20.80
2018-09-06T03:58:32.944Z,22.77
2018-09-06T04:01:01.359Z,21.80
2018-09-06T04:03:29.631Z,23.43
2018-09-06T04:05:57.969Z,24.80
2018-09-06T04:08:26.287Z,18.87
2018-09-06T04:10:54.976Z,21.90
2018-09-06T04:13:23.237Z,26.45
2018-09-06T04:15:51.561Z,19.07
2018-09-06T04:18:19.884Z,20.10
2018-09-06T04:20:48.260Z,20.75
2018-09-06T04:23:16.582Z,19.57
2018-09-06T04:25:44.888Z,18.37
2018-09-06T04:28:13.259Z,17.50
2018-09-06T04:30:41.571Z,21.70
2018-09-06T04:33:09.876Z,21.37
2018-09-06T04:35:38.196Z,19.95
2018-09-06T04:38:06.537Z,18.47
2018-09-06T04:40:34.830Z,19.17
2018-09-06T04:43:03.135Z,20.43
2018-09-06T04:45:31.483Z,19.80
2018-09-06T04:47:59.756Z,21.13
2018-09-06T04:50:28.049Z,21.20
2018-09-06T04:52:56.363Z,20.00
2018-09-06T04:55:24.773Z,22.00
2018-09-06T04:57:53.195Z,21.82
2018-09-06T05:00:21.475Z,17.85
2018-09-06T05:02:49.783Z,20.45
2018-09-06T05:05:18.097Z,20.77
2018-09-06T05:07:46.501Z,19.48
2018-09-06T05:10:14.814Z,18.00
2018-09-06T05:12:43.135Z,19.12
2018-09-06T05:15:11.485Z,20.17
2018-09-06T05:17:39.912Z,20.08
2018-09-06T05:20:08.224Z,19.13
2018-09-06T05:22:36.521Z,19.93
2018-09-06T05:25:04.892Z,19.97
2018-09-06T05:27:33.200Z,21.50
2018-09-06T05:30:01.540Z,21.48
2018-09-06T05:32:30.165Z,20.77
2018-09-06T05:34:58.497Z,22.02
2018-09-06T05:37:26.833Z,19.37
2018-09-06T05:39:55.177Z,20.12
2018-09-06T05:42:23.470Z,23.70
2018-09-06T05:44:51.769Z,25.57
2018-09-06T05:47:20.209Z,19.27
2018-09-06T05:49:48.433Z,20.33
2018-09-06T05:52:16.833Z,21.50
2018-09-06T05:54:45.226Z,20.27
2018-09-06T05:57:13.662Z,23.80
2018-09-06T05:59:42.025Z,21.40
2018-09-06T06:02:10.256Z,19.77
2018-09-06T06:04:38.588Z,30.03
2018-09-06T06:07:07.053Z,29.17
2018-09-06T06:09:35.396Z,26.27
2018-09-06T06:12:03.719Z,24.50
2018-09-06T06:14:32.108Z,31.77
2018-09-06T06:17:00.476Z,27.00
2018-09-06T06:19:28.794Z,29.32
2018-09-06T06:21:57.136Z,24.77
2018-09-06T06:24:25.446Z,28.15
2018-09-06T06:26:53.723Z,26.97
2018-09-06T06:29:21.989Z,23.83
2018-09-06T06:31:50.304Z,32.55
2018-09-06T06:34:18.621Z,28.70
2018-09-06T06:36:46.958Z,32.58
2018-09-06T06:39:15.379Z,25.90
2018-09-06T06:41:43.684Z,31.77
2018-09-06T06:44:12.039Z,30.00
2018-09-06T06:46:40.310Z,28.52
2018-09-06T06:49:08.709Z,29.85
2018-09-06T06:51:37.033Z,29.15
2018-09-06T06:54:05.435Z,25.55
2018-09-06T06:56:33.745Z,28.83
2018-09-06T06:59:02.043Z,27.50
2018-09-06T07:01:30.446Z,27.40
2018-09-06T07:03:58.775Z,30.05
2018-09-06T07:06:27.112Z,27.22
2018-09-06T07:08:55.494Z,29.45
2018-09-06T07:11:23.810Z,31.10
2018-09-06T07:13:52.104Z,35.50
2018-09-06T07:16:20.617Z,31.93
2018-09-06T07:18:48.993Z,29.55
2018-09-06T07:21:17.415Z,27.45
2018-09-06T07:23:45.745Z,27.65
2018-09-06T07:26:14.077Z,29.12
2018-09-06T07:28:42.386Z,26.55
2018-09-06T07:31:10.784Z,22.93
2018-09-06T07:33:39.166Z,25.37
2018-09-06T07:36:07.525Z,25.77
2018-09-06T07:38:35.851Z,23.85
2018-09-06T07:41:04.189Z,27.05
2018-09-06T07:43:32.503Z,25.23
2018-09-06T07:46:00.817Z,22.98
2018-09-06T07:48:29.140Z,27.77
2018-09-06T07:50:57.500Z,30.05
2018-09-06T07:53:25.915Z,30.12
2018-09-06T07:55:54.227Z,27.00
2018-09-06T07:58:22.529Z,28.02
2018-09-06T08:00:51.001Z,24.25
2018-09-06T08:03:19.431Z,24.70
2018-09-06T08:05:47.753Z,23.87
2018-09-06T08:08:16.117Z,28.90
2018-09-06T08:10:44.445Z,27.58
2018-09-06T08:13:12.744Z,27.17
2018-09-06T08:15:41.045Z,27.48
2018-09-06T08:18:09.358Z,29.10
2018-09-06T08:20:37.719Z,30.63
2018-09-06T08:23:06.043Z,30.35
2018-09-06T08:25:34.405Z,30.52
2018-09-06T08:28:02.699Z,29.20
2018-09-06T08:30:31.117Z,30.68
2018-09-06T08:32:59.425Z,31.90
2018-09-06T08:35:27.740Z,30.08
2018-09-06T08:37:56.114Z,30.27
2018-09-06T08:40:24.413Z,33.50
2018-09-06T08:42:52.815Z,27.85
2018-09-06T08:45:21.218Z,30.43
2018-09-06T08:47:49.514Z,32.53
2018-09-06T08:50:17.849Z,30.60
2018-09-06T08:52:46.196Z,28.98
2018-09-06T08:55:14.602Z,31.77
2018-09-06T08:57:42.915Z,38.45
2018-09-06T09:00:11.304Z,33.65
2018-09-06T09:02:40.129Z,35.88
2018-09-06T09:05:08.385Z,33.35
2018-09-06T09:07:36.724Z,38.20
2018-09-06T09:10:05.720Z,41.43
2018-09-06T09:12:34.124Z,40.58
2018-09-06T09:15:02.424Z,42.50
2018-09-06T09:17:31.168Z,36.70
2018-09-06T09:19:59.481Z,37.17
2018-09-06T09:22:27.972Z,37.27
2018-09-06T09:24:56.177Z,39.87
2018-09-06T09:27:24.478Z,37.07
2018-09-06T09:29:52.833Z,39.80
2018-09-06T09:32:21.119Z,42.10
2018-09-06T09:34:49.423Z,42.97
2018-09-06T09:37:17.792Z,39.80
2018-09-06T09:39:46.179Z,38.20
2018-09-06T09:42:14.497Z,37.73
2018-09-06T09:44:42.854Z,40.80
2018-09-06T09:49:38.652Z,44.23
2018-09-06T09:52:07.096Z,45.10
2018-09-06T09:54:35.366Z,41.25
2018-09-06T09:57:03.785Z,41.67
2018-09-06T09:59:32.075Z,48.20
2018-09-06T10:02:05.884Z,45.10
2018-09-06T10:04:39.260Z,43.30
2018-09-06T10:07:12.983Z,46.55
2018-09-06T10:09:41.283Z,42.50
2018-09-06T10:12:09.637Z,43.98
2018-09-06T10:14:37.914Z,47.77
2018-09-06T10:17:06.261Z,45.57
2018-09-06T10:19:34.582Z,46.63
2018-09-06T10:22:02.939Z,45.30
2018-09-06T10:24:31.217Z,46.10
2018-09-06T10:26:59.551Z,48.00
2018-09-06T10:29:27.955Z,47.07
2018-09-06T10:31:56.285Z,43.93
2018-09-06T10:34:24.617Z,42.67
2018-09-06T10:36:53.016Z,45.20
2018-09-06T10:39:21.397Z,43.00
2018-09-06T10:41:49.680Z,36.93
2018-09-06T10:44:17.997Z,34.70
2018-09-06T10:46:46.321Z,36.57
2018-09-06T10:49:14.627Z,35.80
2018-09-06T10:51:42.997Z,35.77
2018-09-06T10:54:11.459Z,33.43
2018-09-06T10:56:39.794Z,35.80
2018-09-06T10:59:08.096Z,33.73
2018-09-06T11:01:36.460Z,30.50
2018-09-06T11:04:04.889Z,34.63
2018-09-06T11:06:33.195Z,33.70
2018-09-06T11:09:01.547Z,34.53
2018-09-06T11:11:30.104Z,36.75
2018-09-06T11:14:04.717Z,36.65
2018-09-06T11:16:33.027Z,36.10
2018-09-06T11:19:01.353Z,31.87
2018-09-06T11:21:29.795Z,39.20
2018-09-06T11:23:58.164Z,34.50
2018-09-06T11:26:26.476Z,43.50
2018-09-06T11:28:54.762Z,41.85
2018-09-06T11:31:23.053Z,41.45
2018-09-06T11:33:51.536Z,45.88
2018-09-06T11:36:19.815Z,42.67
2018-09-06T11:38:48.160Z,45.60
2018-09-06T11:41:16.465Z,46.13
2018-09-06T11:43:44.745Z,44.50
2018-09-06T11:46:13.069Z,46.10
2018-09-06T11:48:41.371Z,46.30
2018-09-06T11:51:09.901Z,45.40
2018-09-06T11:53:38.176Z,44.87
2018-09-06T11:56:07.064Z,48.60
2018-09-06T11:58:35.395Z,49.18
2018-09-06T12:01:03.898Z,48.55
2018-09-06T12:03:32.291Z,52.38
2018-09-06T12:06:00.631Z,47.65
2018-09-06T12:08:28.897Z,49.70
2018-09-06T12:10:57.219Z,50.45
2018-09-06T12:13:25.528Z,51.53
2018-09-06T12:15:53.852Z,50.25
2018-09-06T12:18:22.204Z,51.05
2018-09-06T12:20:50.530Z,51.77
2018-09-06T12:23:18.879Z,50.95
2018-09-06T12:25:47.488Z,45.53
2018-09-06T12:28:15.840Z,49.10
2018-09-06T12:30:44.114Z,50.20
2018-09-06T12:33:12.416Z,46.80
2018-09-06T12:35:40.735Z,53.27
2018-09-06T12:38:09.021Z,51.50
2018-09-06T12:40:37.391Z,48.53
2018-09-06T12:43:05.753Z,48.30
2018-09-06T12:45:34.046Z,46.20
2018-09-06T12:48:02.451Z,44.70
2018-09-06T12:50:30.797Z,42.47
2018-09-06T12:52:59.090Z,37.17
2018-09-06T12:55:27.731Z,40.83
2018-09-06T12:57:56.020Z,39.98
2018-09-06T13:00:24.348Z,41.28
2018-09-06T13:02:52.713Z,43.95
2018-09-06T13:05:20.997Z,46.10
2018-09-06T13:07:49.334Z,44.42
2018-09-06T13:10:17.726Z,44.40
2018-09-06T13:12:46.172Z,47.87
2018-09-06T13:15:14.536Z,39.65
2018-09-06T13:17:42.821Z,46.90
2018-09-06T13:20:11.148Z,42.97
2018-09-06T13:22:39.448Z,36.17
2018-09-06T13:25:07.919Z,39.15
2018-09-06T13:27:36.227Z,37.90
2018-09-06T13:30:04.625Z,36.73
2018-09-06T13:32:32.971Z,30.07
2018-09-06T13:35:01.296Z,31.73
2018-09-06T13:37:29.647Z,31.87
2018-09-06T13:39:57.969Z,31.30
2018-09-06T13:42:26.266Z,34.48
2018-09-06T13:44:54.603Z,36.90
2018-09-06T13:47:22.957Z,35.60
2018-09-06T13:49:51.255Z,36.13
2018-09-06T13:52:19.629Z,39.98
2018-09-06T13:54:47.896Z,38.73
2018-09-06T13:57:16.211Z,39.27
2018-09-06T13:59:44.540Z,41.25
2018-09-06T14:02:12.878Z,38.67
2018-09-06T14:04:41.239Z,41.42
2018-09-06T14:07:09.567Z,38.10
2018-09-06T14:09:37.955Z,36.08
2018-09-06T14:12:06.993Z,37.53
2018-09-06T14:14:35.286Z,38.13
2018-09-06T14:17:03.725Z,40.12
2018-09-06T14:19:32.047Z,38.08
2018-09-06T14:22:00.717Z,37.67
2018-09-06T14:24:29.198Z,39.87
2018-09-06T14:26:57.808Z,40.15
2018-09-06T14:29:26.179Z,39.40
2018-09-06T14:31:54.492Z,43.87
2018-09-06T14:34:22.965Z,45.43
2018-09-06T14:36:51.314Z,45.40
2018-09-06T14:39:19.665Z,47.98
2018-09-06T14:41:47.962Z,45.80
2018-09-06T14:44:16.259Z,48.98
2018-09-06T14:46:44.583Z,45.15
2018-09-06T14:49:12.862Z,40.07
2018-09-06T14:51:41.147Z,38.90
2018-09-06T14:54:09.471Z,41.77
2018-09-06T14:56:37.875Z,41.53
2018-09-06T14:59:06.236Z,40.10
2018-09-06T15:01:34.807Z,38.95
2018-09-06T15:04:03.080Z,40.47
2018-09-06T15:06:31.492Z,41.83
2018-09-06T15:08:59.803Z,45.05
2018-09-06T15:11:28.209Z,46.02
2018-09-06T15:13:56.525Z,45.17
2018-09-06T15:16:24.848Z,46.50
2018-09-06T15:18:53.154Z,48.50
2018-09-06T15:21:21.547Z,47.48
2018-09-06T15:23:49.859Z,53.08
2018-09-06T15:26:18.165Z,51.25
2018-09-06T15:28:46.560Z,50.08
2018-09-06T15:31:14.857Z,49.95
2018-09-06T15:33:43.228Z,49.33
2018-09-06T15:36:11.566Z,46.10
2018-09-06T15:38:39.911Z,51.63
2018-09-06T15:41:08.229Z,49.42
2018-09-06T15:43:36.541Z,55.33
2018-09-06T15:46:05.211Z,52.65
2018-09-06T15:48:33.527Z,51.28
2018-09-06T15:51:02.017Z,49.23
2018-09-06T15:53:33.612Z,50.38
2018-09-06T15:56:01.935Z,46.70
2018-09-06T15:58:30.236Z,47.60
2018-09-06T16:00:58.568Z,47.50
2018-09-06T16:03:26.886Z,53.52
2018-09-06T16:05:55.208Z,54.60
2018-09-06T16:08:23.939Z,57.25
2018-09-06T16:10:52.254Z,65.47
2018-09-06T16:13:20.808Z,66.00
2018-09-06T16:15:49.149Z,68.83
2018-09-06T16:18:17.464Z,73.03
2018-09-06T16:20:45.807Z,68.20
2018-09-06T16:23:14.148Z,70.00
2018-09-06T16:25:42.509Z,73.33
2018-09-06T16:28:11.382Z,72.15
2018-09-06T16:30:39.707Z,75.67
2018-09-06T16:33:08.046Z,76.50
2018-09-06T16:35:36.409Z,81.85
2018-09-06T16:38:04.683Z,83.37
2018-09-06T16:40:33.134Z,77.95
2018-09-06T16:43:01.461Z,83.82
2018-09-06T16:45:29.767Z,83.40
2018-09-06T16:47:58.100Z,86.37
2018-09-06T16:51:56.834Z,93.45
2018-09-06T16:54:25.178Z,95.60
2018-09-06T16:56:53.460Z,99.17
2018-09-06T16:59:21.792Z,97.93
2018-09-06T17:01:50.077Z,103.37
2018-09-06T17:04:18.418Z,92.00
2018-09-06T17:06:46.734Z,104.23
2018-09-06T17:09:15.064Z,116.20
2018-09-06T17:11:43.403Z,113.80
2018-09-06T17:14:11.768Z,112.55
2018-09-06T17:16:40.108Z,112.72
2018-09-06T17:19:08.468Z,115.88
2018-09-06T17:21:37.436Z,112.37
2018-09-06T17:24:05.755Z,110.37
2018-09-06T17:26:34.080Z,113.77
2018-09-06T17:29:02.408Z,112.83
2018-09-06T17:31:30.769Z,116.62
2018-09-06T17:33:59.154Z,119.95
2018-09-06T17:36:27.498Z,125.40
2018-09-06T17:38:55.877Z,122.72
2018-09-06T17:41:24.393Z,141.35
2018-09-06T17:43:52.711Z,132.22
2018-09-06T17:46:21.052Z,138.40
2018-09-06T17:48:49.494Z,69.72
2018-09-06T17:51:17.791Z,55.83
2018-09-06T17:53:46.101Z,30.65
2018-09-06T17:56:14.457Z,31.45
2018-09-06T17:58:42.790Z,31.00
2018-09-06T18:01:21.842Z,35.28
2018-09-06T18:03:50.192Z,39.90
2018-09-06T18:06:18.610Z,35.40
2018-09-06T18:08:46.930Z,39.58
2018-09-06T18:12:51.029Z,36.40
2018-09-06T18:15:19.352Z,40.75
2018-09-06T18:17:47.799Z,41.00
2018-09-06T18:20:16.025Z,45.20
2018-09-06T18:22:44.339Z,41.37
2018-09-06T18:25:12.668Z,44.25
2018-09-06T18:27:41.122Z,47.03
2018-09-06T18:30:09.419Z,45.08
2018-09-06T18:32:37.822Z,51.20
2018-09-06T18:35:06.168Z,45.75
2018-09-06T18:37:34.561Z,47.50
2018-09-06T18:40:02.926Z,50.90
2018-09-06T18:42:31.255Z,48.52
2018-09-06T18:44:59.627Z,49.70
2018-09-06T18:47:27.942Z,51.10
2018-09-06T18:49:56.251Z,52.27
2018-09-06T18:52:24.582Z,47.78
2018-09-06T18:54:53.215Z,48.83
2018-09-06T18:57:21.549Z,54.50
2018-09-06T18:59:49.820Z,54.25
2018-09-06T19:02:18.148Z,59.50
2018-09-06T19:04:46.475Z,50.83
2018-09-06T19:07:14.773Z,59.75
2018-09-06T19:09:44.047Z,58.08
2018-09-06T19:12:12.389Z,61.65
2018-09-06T19:14:40.764Z,62.73
2018-09-06T19:17:09.094Z,63.23
2018-09-06T19:19:37.397Z,71.37
2018-09-06T19:22:05.727Z,77.72
2018-09-06T19:24:34.034Z,78.85
2018-09-06T19:27:02.328Z,84.00
2018-09-06T19:29:30.662Z,82.80
2018-09-06T19:31:59.148Z,82.02
2018-09-06T19:34:27.330Z,95.53
2018-09-06T19:36:55.612Z,91.72
2018-09-06T19:39:23.939Z,90.92
2018-09-06T19:41:52.338Z,91.08
2018-09-06T19:44:20.636Z,98.78
2018-09-06T19:46:48.979Z,107.45
2018-09-06T19:49:17.296Z,131.55
2018-09-06T19:51:45.622Z,164.97
2018-09-06T19:54:14.078Z,177.35
2018-09-06T19:56:42.376Z,163.68
2018-09-06T19:59:10.710Z,144.20
2018-09-06T20:01:40.277Z,133.63
2018-09-06T20:04:08.664Z,105.10
2018-09-06T20:06:37.018Z,86.60
2018-09-06T20:09:06.693Z,74.13
2018-09-06T20:11:35.064Z,68.37
2018-09-06T20:14:03.404Z,61.48
2018-09-06T20:16:31.716Z,51.55
2018-09-06T20:19:00.090Z,44.77
2018-09-06T20:21:28.438Z,39.75
2018-09-06T20:23:56.758Z,32.15
2018-09-06T20:26:26.243Z,28.45
2018-09-06T20:28:54.580Z,39.63
2018-09-06T20:31:22.905Z,28.70
2018-09-06T20:33:51.376Z,28.52
2018-09-06T20:36:19.593Z,29.60
2018-09-06T20:38:48.028Z,27.82
2018-09-06T20:41:16.375Z,37.75
2018-09-06T20:43:44.743Z,31.62
2018-09-06T20:46:13.025Z,41.13
2018-09-06T20:48:41.395Z,29.92
2018-09-06T20:51:09.751Z,25.52
2018-09-06T20:53:38.060Z,26.15
2018-09-06T20:56:06.333Z,23.50
2018-09-06T20:58:34.864Z,24.72
2018-09-06T21:01:03.236Z,25.80
2018-09-06T21:03:31.575Z,24.03
2018-09-06T21:05:59.849Z,24.20
2018-09-06T21:08:28.178Z,23.40
2018-09-06T21:10:56.447Z,23.90
2018-09-06T21:13:24.742Z,27.43
2018-09-06T21:15:53.017Z,25.90
2018-09-06T21:18:21.320Z,27.10
2018-09-06T21:20:49.870Z,28.67
2018-09-06T21:23:18.214Z,24.55
2018-09-06T21:25:46.545Z,27.22
2018-09-06T21:28:14.876Z,22.02
2018-09-06T21:30:43.290Z,24.80
2018-09-06T21:33:11.620Z,21.27
2018-09-06T21:35:39.934Z,19.73
2018-09-06T21:38:08.308Z,22.42
2018-09-06T21:40:36.634Z,18.10
2018-09-06T21:43:05.053Z,21.02
2018-09-06T21:45:33.366Z,19.90
2018-09-06T21:48:01.732Z,18.05
2018-09-06T21:50:30.071Z,20.77
2018-09-06T21:52:58.381Z,16.90
2018-09-06T21:55:26.709Z,16.80
2018-09-06T21:57:54.991Z,17.87
2018-09-06T22:00:23.342Z,19.67
2018-09-06T22:02:56.834Z,20.57
2018-09-06T22:05:25.161Z,23.70
2018-09-06T22:07:53.440Z,20.75
2018-09-06T22:10:22.715Z,23.70
2018-09-06T22:12:52.428Z,22.13
2018-09-06T22:15:23.980Z,22.50
2018-09-06T22:17:52.301Z,21.82
2018-09-06T22:20:20.628Z,21.17
2018-09-06T22:22:48.935Z,23.30
2018-09-06T22:25:17.297Z,23.50
2018-09-06T22:27:45.616Z,26.73
2018-09-06T22:30:14.037Z,22.90
2018-09-06T22:32:42.347Z,22.10
2018-09-06T22:35:10.624Z,26.35
2018-09-06T22:37:38.937Z,25.20
2018-09-06T22:40:07.284Z,28.60
2018-09-06T22:42:35.832Z,28.67
2018-09-06T22:45:05.594Z,28.67
2018-09-06T22:47:33.905Z,30.83
2018-09-06T22:50:02.300Z,28.60
2018-09-06T22:52:30.594Z,32.35
2018-09-06T22:54:58.936Z,38.88
2018-09-06T22:57:27.321Z,70.30
2018-09-06T22:59:55.665Z,111.22
2018-09-06T23:02:27.716Z,118.65
2018-09-06T23:04:56.037Z,79.25
2018-09-06T23:07:24.347Z,59.10
2018-09-06T23:09:52.718Z,52.15
2018-09-06T23:12:20.995Z,42.25
2018-09-06T23:14:49.335Z,34.18
2018-09-06T23:17:17.625Z,33.70
2018-09-06T23:19:45.998Z,37.53
2018-09-06T23:22:14.355Z,35.52
2018-09-06T23:24:42.660Z,34.92
2018-09-06T23:27:10.973Z,40.15
2018-09-06T23:29:39.321Z,35.85
2018-09-06T23:32:07.649Z,37.98
2018-09-06T23:34:36.302Z,40.50
2018-09-06T23:37:05.282Z,42.17
2018-09-06T23:39:33.956Z,41.55
2018-09-06T23:42:02.579Z,39.25
2018-09-06T23:44:30.849Z,40.25
2018-09-06T23:46:59.437Z,39.20
2018-09-06T23:49:27.912Z,39.33
2018-09-06T23:51:56.216Z,42.57
2018-09-06T23:54:24.565Z,35.70
2018-09-06T23:56:53.113Z,33.83
2018-09-06T23:59:21.426Z,34.75
